sensor_id;sensor_type;location;lat;lon;timestamp;pressure;altitude;pressure_sealevel;temperature;humidity
21760;BME280;11041;50.854;20.580;2023-02-04T00:01:16;97714.38;;;0.79;100.00
21760;BME280;11041;50.854;20.580;2023-02-04T00:03:43;97730.53;;;1.00;100.00
21760;BME280;11041;50.854;20.580;2023-02-04T00:06:09;97720.53;;;0.95;100.00
21760;BME280;11041;50.854;20.580;2023-02-04T00:08:36;97719.47;;;0.91;100.00
21760;BME280;11041;50.854;20.580;2023-02-04T00:11:04;97715.41;;;0.89;100.00
21760;BME280;11041;50.854;20.580;2023-02-04T00:13:30;97698.16;;;0.79;100.00
21760;BME280;11041;50.854;20.580;2023-02-04T00:15:57;97722.16;;;1.01;100.00
21760;BME280;11041;50.854;20.580;2023-02-04T00:18:23;97702.72;;;0.94;100.00
21760;BME280;11041;50.854;20.580;2023-02-04T00:20:49;97731.59;;;1.04;100.00
21760;BME280;11041;50.854;20.580;2023-02-04T00:23:16;97712.69;;;0.94;100.00
21760;BME280;11041;50.854;20.580;2023-02-04T00:25:42;97713.25;;;0.91;100.00
21760;BME280;11041;50.854;20.580;2023-02-04T00:28:08;97739.94;;;1.08;100.00
21760;BME280;11041;50.854;20.580;2023-02-04T00:30:35;97731.59;;;1.04;100.00
21760;BME280;11041;50.854;20.580;2023-02-04T00:33:02;97714.28;;;1.00;100.00
21760;BME280;11041;50.854;20.580;2023-02-04T00:35:29;97694.81;;;0.98;100.00
21760;BME280;11041;50.854;20.580;2023-02-04T00:37:55;97702.38;;;1.01;100.00
21760;BME280;11041;50.854;20.580;2023-02-04T00:40:22;97722.63;;;1.14;100.00
21760;BME280;11041;50.854;20.580;2023-02-04T00:42:48;97710.19;;;1.08;99.94
21760;BME280;11041;50.854;20.580;2023-02-04T00:45:15;97716.41;;;1.13;99.39
21760;BME280;11041;50.854;20.580;2023-02-04T00:47:41;97703.13;;;1.17;99.40
21760;BME280;11041;50.854;20.580;2023-02-04T00:50:08;97701.00;;;1.09;99.06
21760;BME280;11041;50.854;20.580;2023-02-04T00:52:35;97716.91;;;1.15;99.35
21760;BME280;11041;50.854;20.580;2023-02-04T00:55:02;97701.56;;;1.00;99.35
21760;BME280;11041;50.854;20.580;2023-02-04T00:57:28;97697.53;;;0.98;99.33
21760;BME280;11041;50.854;20.580;2023-02-04T00:59:55;97713.47;;;1.04;99.70
21760;BME280;11041;50.854;20.580;2023-02-04T01:02:21;97711.84;;;1.03;100.00
21760;BME280;11041;50.854;20.580;2023-02-04T01:04:48;97723.16;;;1.11;100.00
21760;BME280;11041;50.854;20.580;2023-02-04T01:07:14;97703.75;;;0.98;100.00
21760;BME280;11041;50.854;20.580;2023-02-04T01:09:40;97726.13;;;1.14;100.00
21760;BME280;11041;50.854;20.580;2023-02-04T01:12:07;97718.03;;;1.09;100.00
21760;BME280;11041;50.854;20.580;2023-02-04T01:14:34;97725.38;;;1.03;100.00
21760;BME280;11041;50.854;20.580;2023-02-04T01:17:00;97699.47;;;0.92;100.00
21760;BME280;11041;50.854;20.580;2023-02-04T01:19:26;97708.66;;;0.91;99.82
21760;BME280;11041;50.854;20.580;2023-02-04T01:21:53;97727.28;;;0.98;100.00
21760;BME280;11041;50.854;20.580;2023-02-04T01:24:20;97726.22;;;0.99;99.94
21760;BME280;11041;50.854;20.580;2023-02-04T01:26:46;97707.91;;;0.80;99.63
21760;BME280;11041;50.854;20.580;2023-02-04T01:29:13;97740.03;;;0.92;99.80
21760;BME280;11041;50.854;20.580;2023-02-04T01:31:39;97721.72;;;0.74;99.66
21760;BME280;11041;50.854;20.580;2023-02-04T01:34:06;97732.50;;;0.79;99.79
21760;BME280;11041;50.854;20.580;2023-02-04T01:36:32;97736.84;;;0.80;99.99
21760;BME280;11041;50.854;20.580;2023-02-04T01:38:59;97724.19;;;0.60;99.57
21760;BME280;11041;50.854;20.580;2023-02-04T01:41:26;97747.16;;;0.68;99.82
21760;BME280;11041;50.854;20.580;2023-02-04T01:43:54;97734.47;;;0.53;100.00
21760;BME280;11041;50.854;20.580;2023-02-04T01:46:20;97751.53;;;0.53;99.74
21760;BME280;11041;50.854;20.580;2023-02-04T01:48:47;97753.16;;;0.44;99.79
21760;BME280;11041;50.854;20.580;2023-02-04T01:51:20;97765.88;;;0.49;100.00
21760;BME280;11041;50.854;20.580;2023-02-04T01:53:53;97769.63;;;0.48;99.81
21760;BME280;11041;50.854;20.580;2023-02-04T01:56:23;97780.19;;;0.44;100.00
21760;BME280;11041;50.854;20.580;2023-02-04T01:58:54;97764.31;;;0.17;100.00
21760;BME280;11041;50.854;20.580;2023-02-04T02:01:49;97789.41;;;0.07;100.00
21760;BME280;11041;50.854;20.580;2023-02-04T02:04:21;97789.97;;;-0.11;100.00
21760;BME280;11041;50.854;20.580;2023-02-04T02:06:56;97805.59;;;-0.18;100.00
21760;BME280;11041;50.854;20.580;2023-02-04T02:09:26;97805.88;;;-0.25;100.00
21760;BME280;11041;50.854;20.580;2023-02-04T02:11:53;97802.63;;;-0.27;100.00
21760;BME280;11041;50.854;20.580;2023-02-04T02:14:20;97822.31;;;-0.32;100.00
21760;BME280;11041;50.854;20.580;2023-02-04T02:16:47;97808.81;;;-0.37;100.00
21760;BME280;11041;50.854;20.580;2023-02-04T02:19:31;97828.25;;;-0.35;100.00
21760;BME280;11041;50.854;20.580;2023-02-04T02:22:12;97831.22;;;-0.36;100.00
21760;BME280;11041;50.854;20.580;2023-02-04T02:24:42;97851.19;;;-0.37;100.00
21760;BME280;11041;50.854;20.580;2023-02-04T02:27:10;97821.19;;;-0.56;100.00
21760;BME280;11041;50.854;20.580;2023-02-04T02:29:39;97851.13;;;-0.58;100.00
21760;BME280;11041;50.854;20.580;2023-02-04T02:32:09;97858.41;;;-0.63;100.00
21760;BME280;11041;50.854;20.580;2023-02-04T02:34:38;97874.28;;;-0.72;100.00
21760;BME280;11041;50.854;20.580;2023-02-04T02:37:06;97885.59;;;-0.75;100.00
21760;BME280;11041;50.854;20.580;2023-02-04T02:39:39;97851.72;;;-1.09;100.00
21760;BME280;11041;50.854;20.580;2023-02-04T02:42:11;97880.38;;;-0.97;100.00
21760;BME280;11041;50.854;20.580;2023-02-04T02:44:40;97894.03;;;-1.09;100.00
21760;BME280;11041;50.854;20.580;2023-02-04T02:47:14;97892.56;;;-1.32;100.00
21760;BME280;11041;50.854;20.580;2023-02-04T02:49:43;97921.41;;;-1.27;100.00
21760;BME280;11041;50.854;20.580;2023-02-04T02:52:11;97904.59;;;-1.45;100.00
21760;BME280;11041;50.854;20.580;2023-02-04T02:54:40;97917.22;;;-1.51;99.62
21760;BME280;11041;50.854;20.580;2023-02-04T02:57:14;97936.03;;;-1.56;99.08
21760;BME280;11041;50.854;20.580;2023-02-04T02:59:42;97949.72;;;-1.62;100.00
21760;BME280;11041;50.854;20.580;2023-02-04T03:02:17;97960.19;;;-1.66;100.00
21760;BME280;11041;50.854;20.580;2023-02-04T03:04:53;97981.78;;;-1.61;99.41
21760;BME280;11041;50.854;20.580;2023-02-04T03:07:22;97997.41;;;-1.63;98.97
21760;BME280;11041;50.854;20.580;2023-02-04T03:09:49;97993.53;;;-1.72;99.02
21760;BME280;11041;50.854;20.580;2023-02-04T03:12:18;98032.13;;;-1.61;99.72
21760;BME280;11041;50.854;20.580;2023-02-04T03:14:45;98029.09;;;-1.70;98.96
21760;BME280;11041;50.854;20.580;2023-02-04T03:17:12;98038.69;;;-1.79;98.82
21760;BME280;11041;50.854;20.580;2023-02-04T03:19:39;98045.03;;;-1.90;99.07
21760;BME280;11041;50.854;20.580;2023-02-04T03:22:06;98067.06;;;-1.94;98.99
21760;BME280;11041;50.854;20.580;2023-02-04T03:24:35;98067.53;;;-2.02;98.77
21760;BME280;11041;50.854;20.580;2023-02-04T03:27:03;98061.19;;;-2.12;98.98
21760;BME280;11041;50.854;20.580;2023-02-04T03:29:29;98087.13;;;-2.06;98.97
21760;BME280;11041;50.854;20.580;2023-02-04T03:31:56;98087.53;;;-2.15;98.64
21760;BME280;11041;50.854;20.580;2023-02-04T03:34:25;98105.13;;;-2.07;99.53
21760;BME280;11041;50.854;20.580;2023-02-04T03:36:51;98095.81;;;-2.21;99.16
21760;BME280;11041;50.854;20.580;2023-02-04T03:39:18;98095.91;;;-2.33;99.68
21760;BME280;11041;50.854;20.580;2023-02-04T03:41:44;98145.88;;;-2.20;100.00
21760;BME280;11041;50.854;20.580;2023-02-04T03:44:11;98156.06;;;-2.22;100.00
21760;BME280;11041;50.854;20.580;2023-02-04T03:46:37;98159.81;;;-2.23;100.00
21760;BME280;11041;50.854;20.580;2023-02-04T03:49:04;98181.53;;;-2.30;99.22
21760;BME280;11041;50.854;20.580;2023-02-04T03:51:30;98174.69;;;-2.54;100.00
21760;BME280;11041;50.854;20.580;2023-02-04T03:53:57;98190.75;;;-2.60;100.00
21760;BME280;11041;50.854;20.580;2023-02-04T03:56:23;98214.09;;;-2.60;100.00
21760;BME280;11041;50.854;20.580;2023-02-04T03:58:50;98220.78;;;-2.63;100.00
21760;BME280;11041;50.854;20.580;2023-02-04T04:01:16;98219.56;;;-2.72;100.00
21760;BME280;11041;50.854;20.580;2023-02-04T04:03:43;98272.56;;;-2.55;100.00
21760;BME280;11041;50.854;20.580;2023-02-04T04:06:09;98254.50;;;-2.72;100.00
21760;BME280;11041;50.854;20.580;2023-02-04T04:08:37;98263.22;;;-2.82;100.00
21760;BME280;11041;50.854;20.580;2023-02-04T04:11:04;98293.22;;;-2.73;100.00
21760;BME280;11041;50.854;20.580;2023-02-04T04:13:31;98296.88;;;-2.79;100.00
21760;BME280;11041;50.854;20.580;2023-02-04T04:15:57;98299.56;;;-2.79;100.00
21760;BME280;11041;50.854;20.580;2023-02-04T04:18:23;98307.63;;;-2.79;100.00
21760;BME280;11041;50.854;20.580;2023-02-04T04:20:50;98297.28;;;-2.99;100.00
21760;BME280;11041;50.854;20.580;2023-02-04T04:23:16;98329.41;;;-2.92;100.00
21760;BME280;11041;50.854;20.580;2023-02-04T04:25:43;98342.75;;;-2.86;100.00
21760;BME280;11041;50.854;20.580;2023-02-04T04:28:09;98340.66;;;-2.95;100.00
21760;BME280;11041;50.854;20.580;2023-02-04T04:30:36;98372.75;;;-2.89;100.00
21760;BME280;11041;50.854;20.580;2023-02-04T04:33:02;98371.16;;;-2.90;100.00
21760;BME280;11041;50.854;20.580;2023-02-04T04:35:29;98370.94;;;-3.00;100.00
21760;BME280;11041;50.854;20.580;2023-02-04T04:37:55;98373.16;;;-3.09;100.00
21760;BME280;11041;50.854;20.580;2023-02-04T04:40:22;98415.34;;;-2.86;100.00
21760;BME280;11041;50.854;20.580;2023-02-04T04:42:48;98425.25;;;-2.86;100.00
21760;BME280;11041;50.854;20.580;2023-02-04T04:45:15;98422.00;;;-3.00;100.00
21760;BME280;11041;50.854;20.580;2023-02-04T04:47:42;98427.63;;;-3.02;100.00
21760;BME280;11041;50.854;20.580;2023-02-04T04:50:09;98450.19;;;-2.91;100.00
21760;BME280;11041;50.854;20.580;2023-02-04T04:52:36;98478.47;;;-2.88;100.00
21760;BME280;11041;50.854;20.580;2023-02-04T04:55:03;98472.50;;;-3.02;100.00
21760;BME280;11041;50.854;20.580;2023-02-04T04:57:31;98498.31;;;-2.89;100.00
21760;BME280;11041;50.854;20.580;2023-02-04T04:59:57;98489.31;;;-3.07;100.00
21760;BME280;11041;50.854;20.580;2023-02-04T05:02:24;98527.06;;;-3.02;100.00
21760;BME280;11041;50.854;20.580;2023-02-04T05:04:50;98537.59;;;-3.00;100.00
21760;BME280;11041;50.854;20.580;2023-02-04T05:07:17;98550.22;;;-3.01;100.00
21760;BME280;11041;50.854;20.580;2023-02-04T05:09:44;98579.34;;;-2.97;100.00
21760;BME280;11041;50.854;20.580;2023-02-04T05:12:10;98588.91;;;-3.02;100.00
21760;BME280;11041;50.854;20.580;2023-02-04T05:14:37;98593.91;;;-3.17;100.00
21760;BME280;11041;50.854;20.580;2023-02-04T05:17:03;98611.44;;;-3.14;100.00
21760;BME280;11041;50.854;20.580;2023-02-04T05:19:30;98620.91;;;-3.12;100.00
21760;BME280;11041;50.854;20.580;2023-02-04T05:21:56;98630.00;;;-3.13;100.00
21760;BME280;11041;50.854;20.580;2023-02-04T05:24:23;98650.59;;;-3.07;100.00
21760;BME280;11041;50.854;20.580;2023-02-04T05:26:49;98690.84;;;-3.00;100.00
21760;BME280;11041;50.854;20.580;2023-02-04T05:29:16;98672.44;;;-3.15;100.00
21760;BME280;11041;50.854;20.580;2023-02-04T05:31:42;98701.81;;;-3.02;100.00
21760;BME280;11041;50.854;20.580;2023-02-04T05:34:09;98691.69;;;-3.18;100.00
21760;BME280;11041;50.854;20.580;2023-02-04T05:36:35;98731.47;;;-3.08;100.00
21760;BME280;11041;50.854;20.580;2023-02-04T05:39:02;98721.03;;;-3.16;100.00
21760;BME280;11041;50.854;20.580;2023-02-04T05:41:28;98739.38;;;-3.13;100.00
21760;BME280;11041;50.854;20.580;2023-02-04T05:43:55;98748.25;;;-3.13;99.92
21760;BME280;11041;50.854;20.580;2023-02-04T05:46:21;98777.47;;;-2.98;100.00
21760;BME280;11041;50.854;20.580;2023-02-04T05:48:48;98784.31;;;-3.02;100.00
21760;BME280;11041;50.854;20.580;2023-02-04T05:51:14;98798.97;;;-2.98;100.00
21760;BME280;11041;50.854;20.580;2023-02-04T05:53:41;98833.91;;;-2.98;99.84
21760;BME280;11041;50.854;20.580;2023-02-04T05:56:07;98837.03;;;-3.01;99.39
21760;BME280;11041;50.854;20.580;2023-02-04T05:58:34;98843.25;;;-3.01;98.63
21760;BME280;11041;50.854;20.580;2023-02-04T06:01:03;98854.81;;;-3.00;98.47
21760;BME280;11041;50.854;20.580;2023-02-04T06:03:30;98856.22;;;-3.16;98.72
21760;BME280;11041;50.854;20.580;2023-02-04T06:05:58;98903.06;;;-3.05;98.11
21760;BME280;11041;50.854;20.580;2023-02-04T06:08:24;98889.91;;;-3.13;97.51
21760;BME280;11041;50.854;20.580;2023-02-04T06:10:51;98887.66;;;-3.16;96.95
21760;BME280;11041;50.854;20.580;2023-02-04T06:13:17;98935.53;;;-3.07;96.77
21760;BME280;11041;50.854;20.580;2023-02-04T06:15:44;98941.88;;;-3.01;96.99
21760;BME280;11041;50.854;20.580;2023-02-04T06:18:10;98938.06;;;-3.12;96.22
21760;BME280;11041;50.854;20.580;2023-02-04T06:20:37;98955.63;;;-3.09;95.35
21760;BME280;11041;50.854;20.580;2023-02-04T06:23:03;98955.00;;;-3.11;95.83
21760;BME280;11041;50.854;20.580;2023-02-04T06:25:30;98983.72;;;-3.05;95.84
21760;BME280;11041;50.854;20.580;2023-02-04T06:27:56;99011.09;;;-3.15;94.27
21760;BME280;11041;50.854;20.580;2023-02-04T06:30:23;99004.22;;;-3.11;93.81
21760;BME280;11041;50.854;20.580;2023-02-04T06:32:49;98989.53;;;-3.33;94.14
21760;BME280;11041;50.854;20.580;2023-02-04T06:35:15;99024.44;;;-3.08;94.00
21760;BME280;11041;50.854;20.580;2023-02-04T06:37:43;99021.44;;;-3.18;93.96
21760;BME280;11041;50.854;20.580;2023-02-04T06:40:11;99037.97;;;-3.15;93.57
21760;BME280;11041;50.854;20.580;2023-02-04T06:42:38;99065.63;;;-3.08;93.27
21760;BME280;11041;50.854;20.580;2023-02-04T06:45:05;99047.31;;;-3.17;93.43
21760;BME280;11041;50.854;20.580;2023-02-04T06:47:32;99055.16;;;-3.23;92.59
21760;BME280;11041;50.854;20.580;2023-02-04T06:49:58;99069.63;;;-3.17;93.63
21760;BME280;11041;50.854;20.580;2023-02-04T06:52:25;99069.88;;;-3.25;92.68
21760;BME280;11041;50.854;20.580;2023-02-04T06:54:51;99119.81;;;-3.11;93.04
21760;BME280;11041;50.854;20.580;2023-02-04T06:57:17;99116.13;;;-3.16;93.24
21760;BME280;11041;50.854;20.580;2023-02-04T06:59:44;99147.91;;;-3.07;93.42
21760;BME280;11041;50.854;20.580;2023-02-04T07:02:12;99154.34;;;-3.08;92.27
21760;BME280;11041;50.854;20.580;2023-02-04T07:04:39;99150.47;;;-3.18;92.44
21760;BME280;11041;50.854;20.580;2023-02-04T07:07:07;99172.91;;;-3.06;90.96
21760;BME280;11041;50.854;20.580;2023-02-04T07:09:34;99156.88;;;-3.19;91.73
21760;BME280;11041;50.854;20.580;2023-02-04T07:12:00;99181.91;;;-3.19;92.40
21760;BME280;11041;50.854;20.580;2023-02-04T07:14:27;99195.31;;;-3.12;91.48
21760;BME280;11041;50.854;20.580;2023-02-04T07:16:54;99217.19;;;-3.09;91.85
21760;BME280;11041;50.854;20.580;2023-02-04T07:19:23;99194.09;;;-3.23;91.98
21760;BME280;11041;50.854;20.580;2023-02-04T07:21:51;99214.31;;;-3.14;91.79
21760;BME280;11041;50.854;20.580;2023-02-04T07:24:19;99253.13;;;-3.03;91.94
21760;BME280;11041;50.854;20.580;2023-02-04T07:26:47;99229.97;;;-2.97;92.13
21760;BME280;11041;50.854;20.580;2023-02-04T07:29:14;99244.03;;;-3.02;91.31
21760;BME280;11041;50.854;20.580;2023-02-04T07:31:40;99225.25;;;-3.09;91.34
21760;BME280;11041;50.854;20.580;2023-02-04T07:34:06;99250.84;;;-3.00;92.04
21760;BME280;11041;50.854;20.580;2023-02-04T07:36:33;99240.75;;;-3.11;91.66
21760;BME280;11041;50.854;20.580;2023-02-04T07:38:59;99256.59;;;-2.96;91.97
21760;BME280;11041;50.854;20.580;2023-02-04T07:41:25;99243.47;;;-3.11;91.92
21760;BME280;11041;50.854;20.580;2023-02-04T07:43:52;99267.19;;;-3.01;91.79
21760;BME280;11041;50.854;20.580;2023-02-04T07:46:18;99285.56;;;-2.91;92.06
21760;BME280;11041;50.854;20.580;2023-02-04T07:48:44;99282.91;;;-2.98;91.96
21760;BME280;11041;50.854;20.580;2023-02-04T07:51:11;99284.56;;;-2.97;92.77
21760;BME280;11041;50.854;20.580;2023-02-04T07:53:37;99286.84;;;-3.01;92.20
21760;BME280;11041;50.854;20.580;2023-02-04T07:56:04;99295.28;;;-2.90;92.13
21760;BME280;11041;50.854;20.580;2023-02-04T07:58:31;99323.97;;;-2.78;92.47
21760;BME280;11041;50.854;20.580;2023-02-04T08:00:57;99344.84;;;-2.73;92.13
21760;BME280;11041;50.854;20.580;2023-02-04T08:03:23;99324.78;;;-2.77;91.81
21760;BME280;11041;50.854;20.580;2023-02-04T08:05:50;99340.09;;;-2.71;91.76
21760;BME280;11041;50.854;20.580;2023-02-04T08:08:17;99346.06;;;-2.69;92.40
21760;BME280;11041;50.854;20.580;2023-02-04T08:10:43;99337.41;;;-2.78;92.01
21760;BME280;11041;50.854;20.580;2023-02-04T08:13:10;99358.09;;;-2.71;91.27
21760;BME280;11041;50.854;20.580;2023-02-04T08:15:36;99330.88;;;-2.95;91.42
21760;BME280;11041;50.854;20.580;2023-02-04T08:18:03;99354.59;;;-2.79;91.78
21760;BME280;11041;50.854;20.580;2023-02-04T08:20:30;99365.94;;;-2.70;91.74
21760;BME280;11041;50.854;20.580;2023-02-04T08:22:56;99379.34;;;-2.57;92.46
21760;BME280;11041;50.854;20.580;2023-02-04T08:25:23;99380.97;;;-2.55;92.01
21760;BME280;11041;50.854;20.580;2023-02-04T08:27:49;99371.31;;;-2.70;91.29
21760;BME280;11041;50.854;20.580;2023-02-04T08:30:16;99372.97;;;-2.69;91.36
21760;BME280;11041;50.854;20.580;2023-02-04T08:32:43;99398.16;;;-2.50;91.82
21760;BME280;11041;50.854;20.580;2023-02-04T08:35:09;99402.13;;;-2.59;91.16
21760;BME280;11041;50.854;20.580;2023-02-04T08:37:36;99395.13;;;-2.73;90.88
21760;BME280;11041;50.854;20.580;2023-02-04T08:40:03;99387.91;;;-2.80;90.81
21760;BME280;11041;50.854;20.580;2023-02-04T08:42:29;99412.56;;;-2.89;90.90
21760;BME280;11041;50.854;20.580;2023-02-04T08:44:56;99427.41;;;-2.73;90.70
21760;BME280;11041;50.854;20.580;2023-02-04T08:47:22;99422.22;;;-2.75;90.55
21760;BME280;11041;50.854;20.580;2023-02-04T08:49:49;99415.63;;;-2.79;90.05
21760;BME280;11041;50.854;20.580;2023-02-04T08:52:15;99440.84;;;-2.67;91.13
21760;BME280;11041;50.854;20.580;2023-02-04T08:54:41;99419.38;;;-2.87;91.80
21760;BME280;11041;50.854;20.580;2023-02-04T08:57:08;99430.13;;;-2.87;92.70
21760;BME280;11041;50.854;20.580;2023-02-04T08:59:34;99457.00;;;-2.73;92.40
21760;BME280;11041;50.854;20.580;2023-02-04T09:02:00;99465.69;;;-2.71;92.93
21760;BME280;11041;50.854;20.580;2023-02-04T09:04:28;99447.72;;;-2.84;91.67
21760;BME280;11041;50.854;20.580;2023-02-04T09:06:54;99470.84;;;-2.70;90.98
21760;BME280;11041;50.854;20.580;2023-02-04T09:09:21;99478.09;;;-2.64;89.42
21760;BME280;11041;50.854;20.580;2023-02-04T09:11:47;99457.19;;;-2.68;89.34
21760;BME280;11041;50.854;20.580;2023-02-04T09:14:14;99479.53;;;-2.61;87.77
21760;BME280;11041;50.854;20.580;2023-02-04T09:16:40;99510.91;;;-2.42;87.29
21760;BME280;11041;50.854;20.580;2023-02-04T09:19:07;99516.69;;;-2.31;87.23
21760;BME280;11041;50.854;20.580;2023-02-04T09:21:35;99506.16;;;-2.40;86.04
21760;BME280;11041;50.854;20.580;2023-02-04T09:24:02;99523.31;;;-2.27;85.96
21760;BME280;11041;50.854;20.580;2023-02-04T09:26:28;99531.16;;;-2.26;85.57
21760;BME280;11041;50.854;20.580;2023-02-04T09:28:55;99542.31;;;-2.22;86.16
21760;BME280;11041;50.854;20.580;2023-02-04T09:31:21;99536.75;;;-2.21;85.79
21760;BME280;11041;50.854;20.580;2023-02-04T09:33:48;99548.94;;;-2.18;85.40
21760;BME280;11041;50.854;20.580;2023-02-04T09:36:14;99542.94;;;-2.20;84.82
21760;BME280;11041;50.854;20.580;2023-02-04T09:38:41;99543.78;;;-2.26;82.43
21760;BME280;11041;50.854;20.580;2023-02-04T09:41:09;99507.44;;;-2.55;82.64
21760;BME280;11041;50.854;20.580;2023-02-04T09:43:43;99540.34;;;-2.47;83.40
21760;BME280;11041;50.854;20.580;2023-02-04T09:46:23;99544.91;;;-2.47;82.95
21760;BME280;11041;50.854;20.580;2023-02-04T09:48:51;99528.56;;;-2.59;83.32
21760;BME280;11041;50.854;20.580;2023-02-04T09:51:26;99565.81;;;-2.43;83.73
21760;BME280;11041;50.854;20.580;2023-02-04T09:54:18;99563.50;;;-2.39;84.38
21760;BME280;11041;50.854;20.580;2023-02-04T09:56:45;99591.03;;;-2.30;83.35
21760;BME280;11041;50.854;20.580;2023-02-04T09:59:19;99573.25;;;-2.45;80.89
21760;BME280;11041;50.854;20.580;2023-02-04T10:02:19;99584.44;;;-2.54;79.78
21760;BME280;11041;50.854;20.580;2023-02-04T10:04:46;99589.22;;;-2.50;79.12
21760;BME280;11041;50.854;20.580;2023-02-04T10:07:21;99594.59;;;-2.50;80.65
21760;BME280;11041;50.854;20.580;2023-02-04T10:09:52;99602.63;;;-2.43;81.44
21760;BME280;11041;50.854;20.580;2023-02-04T10:12:19;99603.69;;;-2.51;80.67
21760;BME280;11041;50.854;20.580;2023-02-04T10:14:48;99609.28;;;-2.59;81.30
21760;BME280;11041;50.854;20.580;2023-02-04T10:17:21;99606.16;;;-2.63;79.48
21760;BME280;11041;50.854;20.580;2023-02-04T10:19:49;99599.56;;;-2.73;79.56
21760;BME280;11041;50.854;20.580;2023-02-04T10:22:19;99621.72;;;-2.71;79.17
21760;BME280;11041;50.854;20.580;2023-02-04T10:24:46;99634.13;;;-2.57;78.89
21760;BME280;11041;50.854;20.580;2023-02-04T10:27:13;99616.72;;;-2.74;77.11
21760;BME280;11041;50.854;20.580;2023-02-04T10:29:58;99614.88;;;-2.81;77.40
21760;BME280;11041;50.854;20.580;2023-02-04T10:32:31;99614.66;;;-2.72;77.13
21760;BME280;11041;50.854;20.580;2023-02-04T10:35:05;99586.75;;;-2.85;77.51
21760;BME280;11041;50.854;20.580;2023-02-04T10:37:31;99638.03;;;-2.46;76.37
21760;BME280;11041;50.854;20.580;2023-02-04T10:39:58;99621.94;;;-2.60;75.84
21760;BME280;11041;50.854;20.580;2023-02-04T10:42:29;99626.88;;;-2.63;75.54
21760;BME280;11041;50.854;20.580;2023-02-04T10:44:57;99629.59;;;-2.76;75.04
21760;BME280;11041;50.854;20.580;2023-02-04T10:47:28;99664.75;;;-2.58;76.33
21760;BME280;11041;50.854;20.580;2023-02-04T10:50:06;99669.31;;;-2.52;76.89
21760;BME280;11041;50.854;20.580;2023-02-04T10:52:45;99638.06;;;-2.73;77.07
21760;BME280;11041;50.854;20.580;2023-02-04T10:55:22;99638.25;;;-2.74;75.29
21760;BME280;11041;50.854;20.580;2023-02-04T10:57:51;99641.16;;;-2.76;74.05
21760;BME280;11041;50.854;20.580;2023-02-04T11:00:24;99615.28;;;-2.97;74.82
21760;BME280;11041;50.854;20.580;2023-02-04T11:03:10;99677.56;;;-2.60;73.79
21760;BME280;11041;50.854;20.580;2023-02-04T11:05:38;99663.09;;;-2.66;74.14
21760;BME280;11041;50.854;20.580;2023-02-04T11:08:30;99688.97;;;-2.38;73.09
21760;BME280;11041;50.854;20.580;2023-02-04T11:11:28;99702.22;;;-2.30;71.49
21760;BME280;11041;50.854;20.580;2023-02-04T11:16:27;99701.78;;;-2.20;72.28
21760;BME280;11041;50.854;20.580;2023-02-04T11:19:05;99700.38;;;-2.43;72.67
21760;BME280;11041;50.854;20.580;2023-02-04T11:26:45;99719.81;;;-2.61;74.83
21760;BME280;11041;50.854;20.580;2023-02-04T11:32:02;99707.19;;;-2.67;76.60
21760;BME280;11041;50.854;20.580;2023-02-04T11:34:31;99711.13;;;-2.69;76.60
21760;BME280;11041;50.854;20.580;2023-02-04T11:39:46;99721.44;;;-2.80;73.20
21760;BME280;11041;50.854;20.580;2023-02-04T11:42:18;99724.13;;;-2.80;74.62
21760;BME280;11041;50.854;20.580;2023-02-04T11:44:59;99716.28;;;-2.81;74.19
21760;BME280;11041;50.854;20.580;2023-02-04T11:47:35;99701.16;;;-2.82;74.53
21760;BME280;11041;50.854;20.580;2023-02-04T11:50:35;99716.28;;;-2.68;75.26
21760;BME280;11041;50.854;20.580;2023-02-04T11:53:04;99698.28;;;-2.81;74.82
21760;BME280;11041;50.854;20.580;2023-02-04T11:55:36;99721.66;;;-2.68;75.58
21760;BME280;11041;50.854;20.580;2023-02-04T11:58:15;99713.38;;;-2.73;76.19
21760;BME280;11041;50.854;20.580;2023-02-04T12:00:42;99714.84;;;-2.70;76.58
21760;BME280;11041;50.854;20.580;2023-02-04T12:03:31;99714.03;;;-2.64;74.73
21760;BME280;11041;50.854;20.580;2023-02-04T12:05:59;99699.72;;;-2.78;74.62
21760;BME280;11041;50.854;20.580;2023-02-04T12:08:31;99715.06;;;-2.59;75.87
21760;BME280;11041;50.854;20.580;2023-02-04T12:11:04;99706.78;;;-2.57;76.17
21760;BME280;11041;50.854;20.580;2023-02-04T12:13:31;99703.25;;;-2.51;75.38
21760;BME280;11041;50.854;20.580;2023-02-04T12:18:26;99706.16;;;-2.32;76.52
21760;BME280;11041;50.854;20.580;2023-02-04T12:20:54;99703.88;;;-2.36;74.98
21760;BME280;11041;50.854;20.580;2023-02-04T12:23:22;99706.16;;;-2.32;75.67
21760;BME280;11041;50.854;20.580;2023-02-04T12:25:49;99697.47;;;-2.34;74.05
21760;BME280;11041;50.854;20.580;2023-02-04T12:28:17;99659.78;;;-2.68;72.55
21760;BME280;11041;50.854;20.580;2023-02-04T12:30:44;99715.91;;;-2.38;72.16
21760;BME280;11041;50.854;20.580;2023-02-04T12:33:11;99728.09;;;-2.42;73.27
21760;BME280;11041;50.854;20.580;2023-02-04T12:35:37;99743.41;;;-2.36;74.14
21760;BME280;11041;50.854;20.580;2023-02-04T12:38:04;99728.09;;;-2.42;73.99
21760;BME280;11041;50.854;20.580;2023-02-04T12:40:31;99714.00;;;-2.58;72.87
21760;BME280;11041;50.854;20.580;2023-02-04T12:42:58;99715.69;;;-2.57;72.91
21760;BME280;11041;50.854;20.580;2023-02-04T12:45:24;99742.59;;;-2.43;72.59
21760;BME280;11041;50.854;20.580;2023-02-04T12:47:51;99747.56;;;-2.53;72.74
21760;BME280;11041;50.854;20.580;2023-02-04T12:50:18;99730.16;;;-2.64;72.68
21760;BME280;11041;50.854;20.580;2023-02-04T12:52:53;99712.75;;;-2.68;72.00
21760;BME280;11041;50.854;20.580;2023-02-04T12:55:22;99731.81;;;-2.57;72.68
21760;BME280;11041;50.854;20.580;2023-02-04T12:57:50;99735.56;;;-2.44;73.31
21760;BME280;11041;50.854;20.580;2023-02-04T13:00:19;99733.47;;;-2.62;73.66
21760;BME280;11041;50.854;20.580;2023-02-04T13:02:46;99760.19;;;-2.47;73.25
21760;BME280;11041;50.854;20.580;2023-02-04T13:05:14;99756.66;;;-2.54;73.19
21760;BME280;11041;50.854;20.580;2023-02-04T13:07:42;99762.63;;;-2.72;73.91
21760;BME280;11041;50.854;20.580;2023-02-04T13:10:10;99737.56;;;-2.86;74.97